Time;durP1;ratioP1;P1;durP2;ratioP2;P2;SDS_P1;SDS_P2;PMS_P1;PMS_P2;Temp;Humidity;BMP_temperature;BMP_pressure;BME280_temperature;BME280_humidity;BME280_pressure;Samples;Min_cycle;Max_cycle;Signal;HPM_P1;HPM_P2
2022/01/08 00:00:21;;;;;;;3.53;1.98;;;;;;;0.14;90.23;98023.97;4093276;28;20051;-72
2022/01/08 00:02:21;;;;;;;3.25;1.75;;;;;;;0.19;90.53;98028.44;4089968;28;20198;-72
2022/01/08 00:04:22;;;;;;;3.60;1.92;;;;;;;0.16;90.68;98029.88;4092226;28;20048;-72
2022/01/08 00:06:22;;;;;;;3.00;2.25;;;;;;;0.13;90.70;98033.25;4091006;28;20054;-72
2022/01/08 00:08:24;;;;;;;2.20;1.60;;;;;;;0.13;91.25;98027.00;4089811;28;20130;-72
2022/01/08 00:10:24;;;;;;;1.92;1.60;;;;;;;0.10;91.28;98024.94;4094956;28;20498;-72
2022/01/08 00:12:25;;;;;;;3.53;2.10;;;;;;;0.14;91.93;98018.50;4095011;28;20058;-72
2022/01/08 00:14:25;;;;;;;3.45;1.77;;;;;;;0.12;92.52;98015.31;4094540;28;20055;-72
2022/01/08 00:16:25;;;;;;;2.83;2.25;;;;;;;0.16;92.31;98005.38;4090489;28;20044;-72
2022/01/08 00:18:26;;;;;;;3.75;2.40;;;;;;;0.18;91.91;98005.09;4091577;28;20459;-72
2022/01/08 00:20:28;;;;;;;3.83;2.30;;;;;;;0.17;91.82;98007.00;4093338;28;20118;-72
2022/01/08 00:22:28;;;;;;;4.90;2.50;;;;;;;0.20;92.29;98013.72;4092975;28;20047;-72
2022/01/08 00:24:29;;;;;;;4.78;2.22;;;;;;;0.20;92.21;98003.63;4091037;28;20366;-72
2022/01/08 00:26:29;;;;;;;3.20;2.08;;;;;;;0.20;92.00;98011.81;4092805;28;20050;-72
2022/01/08 00:28:30;;;;;;;3.33;2.22;;;;;;;0.20;92.17;98014.53;4091621;28;20043;-72
2022/01/08 00:30:31;;;;;;;3.67;2.20;;;;;;;0.15;92.29;98001.06;4090979;28;20081;-72
2022/01/08 00:32:31;;;;;;;3.28;2.17;;;;;;;0.18;92.50;98003.16;4091918;28;20039;-72
2022/01/08 00:34:32;;;;;;;5.30;2.33;;;;;;;0.16;92.37;98004.59;4091521;28;20054;-72
2022/01/08 00:36:33;;;;;;;5.63;2.45;;;;;;;0.16;92.71;98010.81;4089449;28;20047;-72
2022/01/08 00:38:34;;;;;;;7.07;2.38;;;;;;;0.14;92.38;98006.84;4091947;28;20051;-72
2022/01/08 00:40:34;;;;;;;5.28;1.77;;;;;;;0.14;92.34;98013.06;4090452;28;20065;-72
2022/01/08 00:42:36;;;;;;;2.08;1.50;;;;;;;0.10;92.45;98014.84;4092074;28;20043;-72
2022/01/08 00:44:36;;;;;;;2.47;1.77;;;;;;;0.10;92.79;98000.44;4093728;28;20075;-72
2022/01/08 00:46:36;;;;;;;2.17;1.80;;;;;;;0.08;92.66;97994.50;4091354;28;20543;-72
2022/01/08 00:48:37;;;;;;;4.85;1.88;;;;;;;0.07;92.29;97990.19;4090817;28;20529;-72
2022/01/08 00:50:37;;;;;;;8.18;4.13;;;;;;;0.10;92.36;97993.09;4090635;28;20047;-72
2022/01/08 00:52:41;;;;;;;15.95;6.50;;;;;;;0.12;91.94;97990.84;4091130;28;20043;-72
2022/01/08 00:54:41;;;;;;;10.68;4.82;;;;;;;0.13;92.37;97999.81;4091862;28;20055;-72
2022/01/08 00:56:42;;;;;;;3.80;2.45;;;;;;;0.15;91.68;97998.34;4092467;28;20054;-72
2022/01/08 00:58:42;;;;;;;18.70;8.43;;;;;;;0.16;91.64;97990.97;4089422;28;20490;-72
2022/01/08 01:00:43;;;;;;;9.13;4.38;;;;;;;0.22;91.34;97990.50;4090343;28;20981;-72
2022/01/08 01:02:43;;;;;;;12.57;5.45;;;;;;;0.25;91.01;97995.31;4091399;28;20104;-72
2022/01/08 01:04:43;;;;;;;7.95;4.40;;;;;;;0.24;91.27;97984.72;4088954;28;20049;-72
2022/01/08 01:06:44;;;;;;;6.00;3.63;;;;;;;0.20;91.15;97984.59;4091497;28;20040;-72
2022/01/08 01:08:44;;;;;;;9.10;4.57;;;;;;;0.22;91.30;97995.16;4090919;28;20043;-72
2022/01/08 01:10:44;;;;;;;14.25;5.97;;;;;;;0.18;91.88;97986.03;4095538;28;20051;-72
2022/01/08 01:12:45;;;;;;;11.02;5.22;;;;;;;0.14;92.45;97980.44;4090682;28;20117;-72
2022/01/08 01:14:45;;;;;;;12.25;5.10;;;;;;;0.12;92.70;97976.44;4091727;28;20093;-72
2022/01/08 01:16:46;;;;;;;11.70;4.80;;;;;;;0.12;92.92;97971.00;4088175;28;20058;-72
2022/01/08 01:18:46;;;;;;;10.35;5.03;;;;;;;0.10;93.03;97967.81;4092008;28;20089;-72
2022/01/08 01:20:47;;;;;;;6.32;3.58;;;;;;;0.10;93.42;97975.97;4090689;28;20051;-72
2022/01/08 01:24:59;;;;;;;8.23;3.92;;;;;;;0.10;93.92;97968.59;4091616;28;20054;-72
2022/01/08 01:27:24;;;;;;;6.70;3.28;;;;;;;0.07;93.60;97965.72;4091777;28;20068;-72
2022/01/08 01:29:33;;;;;;;5.18;3.22;;;;;;;0.07;93.65;97973.88;4089146;28;20058;-72
2022/01/08 01:47:34;;;;;;;2.80;1.98;;;;;;;0.05;94.38;97951.66;4087549;28;20042;-72
2022/01/08 01:49:38;;;;;;;2.95;2.25;;;;;;;0.00;94.08;97944.47;4090231;28;20043;-72
2022/01/08 01:51:38;;;;;;;3.50;2.10;;;;;;;-0.01;94.89;97954.53;4091167;28;20037;-72
2022/01/08 01:53:39;;;;;;;6.07;2.25;;;;;;;-0.04;95.11;97952.44;4089667;28;20615;-72
2022/01/08 01:55:44;;;;;;;2.95;1.98;;;;;;;-0.06;95.04;97951.97;4090564;28;20051;-72
2022/01/08 01:57:45;;;;;;;4.40;2.53;;;;;;;-0.06;95.40;97951.19;4088982;28;20075;-72
2022/01/08 01:59:45;;;;;;;4.40;2.20;;;;;;;-0.05;94.81;97958.22;4089728;28;20089;-72
2022/01/08 02:01:46;;;;;;;3.50;2.15;;;;;;;-0.05;94.84;97948.13;4091130;28;20376;-72
2022/01/08 02:03:46;;;;;;;5.55;2.58;;;;;;;-0.04;94.87;97941.56;4089208;28;20051;-72
2022/01/08 02:05:47;;;;;;;3.50;2.38;;;;;;;-0.05;94.58;97948.13;4088452;28;20043;-72
2022/01/08 02:07:47;;;;;;;3.20;2.20;;;;;;;-0.04;95.24;97949.72;4090864;28;20043;-72
2022/01/08 02:09:48;;;;;;;3.33;2.15;;;;;;;0.08;94.76;97931.94;4090704;28;20043;-72
2022/01/08 02:11:56;;;;;;;2.88;2.00;;;;;;;0.10;93.76;97927.00;4090279;28;20062;-72
2022/01/08 02:14:04;;;;;;;3.15;2.10;;;;;;;0.11;93.24;97925.88;4091895;28;20043;-72
2022/01/08 02:16:07;;;;;;;3.38;2.03;;;;;;;0.11;93.73;97925.88;4088978;28;20538;-72
2022/01/08 02:18:07;;;;;;;2.60;2.20;;;;;;;0.12;93.50;97920.13;4088724;28;20388;-72
2022/01/08 02:20:09;;;;;;;2.92;2.38;;;;;;;0.07;93.73;97922.19;4090610;28;20039;-72
2022/01/08 02:22:15;;;;;;;3.07;2.37;;;;;;;0.05;93.46;97919.00;4187941;28;20032;-72
2022/01/08 02:24:16;;;;;;;2.60;1.90;;;;;;;0.06;93.71;97920.59;4089190;28;20774;-72
2022/01/08 02:26:16;;;;;;;2.85;2.10;;;;;;;0.03;93.99;97915.81;4091751;28;20030;-72
2022/01/08 02:28:17;;;;;;;4.25;2.10;;;;;;;0.02;94.25;97919.66;4088265;28;20030;-72
2022/01/08 02:30:19;;;;;;;2.83;2.38;;;;;;;-0.03;95.43;97915.16;4089317;28;20479;-72
2022/01/08 02:32:25;;;;;;;3.08;2.33;;;;;;;0.02;96.01;97909.56;4172466;28;20470;-72
2022/01/08 02:34:27;;;;;;;2.47;2.20;;;;;;;-0.04;96.18;97902.69;4088828;28;20040;-72
2022/01/08 02:36:27;;;;;;;3.30;2.53;;;;;;;-0.07;96.04;97900.63;4089179;28;20048;-72
2022/01/08 02:38:28;;;;;;;2.47;2.10;;;;;;;-0.06;96.42;97908.47;4089224;28;20451;-72
2022/01/08 02:40:28;;;;;;;4.18;2.60;;;;;;;-0.10;97.64;97907.50;4090214;28;20261;-72
2022/01/08 02:42:37;;;;;;;3.13;2.78;;;;;;;-0.15;98.36;97902.25;4089461;28;20462;-72
2022/01/08 02:44:39;;;;;;;4.15;2.67;;;;;;;-0.17;99.11;97906.38;4090098;28;20043;-72
2022/01/08 02:46:41;;;;;;;4.00;2.88;;;;;;;-0.20;99.07;97896.97;4087483;28;20062;-72
2022/01/08 02:48:42;;;;;;;4.78;2.90;;;;;;;-0.18;99.28;97893.91;4097674;28;20047;-72
2022/01/08 02:50:42;;;;;;;3.88;2.55;;;;;;;-0.22;99.05;97891.06;4091995;28;20046;-72
2022/01/08 02:52:44;;;;;;;3.72;2.85;;;;;;;-0.18;99.28;97899.34;4093414;28;20488;-72
2022/01/08 02:54:44;;;;;;;3.70;2.10;;;;;;;-0.18;99.25;97883.03;4090194;28;20043;-72
2022/01/08 02:56:48;;;;;;;3.58;2.53;;;;;;;-0.16;99.67;97899.84;4094311;28;20523;-72
2022/01/08 02:58:48;;;;;;;3.22;2.20;;;;;;;-0.16;99.99;97891.69;4090380;28;20344;-72
2022/01/08 03:00:48;;;;;;;3.42;2.50;;;;;;;-0.15;99.30;97896.00;4093941;28;20155;-72
2022/01/08 03:02:52;;;;;;;5.45;2.53;;;;;;;-0.14;98.80;97884.00;4092292;28;20039;-72
2022/01/08 03:04:54;;;;;;;3.35;2.42;;;;;;;-0.09;98.22;97892.78;4089903;28;20051;-72
2022/01/08 03:06:54;;;;;;;2.20;2.00;;;;;;;-0.04;98.21;97891.81;4088114;28;20411;-72
2022/01/08 03:08:54;;;;;;;2.97;2.58;;;;;;;-0.05;98.08;97887.50;4090987;28;20530;-72
2022/01/08 03:10:55;;;;;;;2.65;2.17;;;;;;;-0.06;98.13;97885.91;4094200;28;20051;-72
2022/01/08 03:12:55;;;;;;;3.67;2.40;;;;;;;-0.12;98.12;97885.28;4091414;28;20607;-72
2022/01/08 03:14:56;;;;;;;2.92;2.28;;;;;;;-0.24;98.49;97887.06;4088363;28;20096;-72
2022/01/08 03:16:56;;;;;;;2.10;1.88;;;;;;;-0.31;99.14;97887.53;4089197;28;20321;-72
2022/01/08 03:18:57;;;;;;;2.63;2.30;;;;;;;-0.41;99.74;97879.72;4089681;28;20137;-72
2022/01/08 03:21:02;;;;;;;2.97;2.10;;;;;;;-0.46;99.99;97891.53;4089924;28;20051;-72
2022/01/08 03:23:04;;;;;;;2.83;2.00;;;;;;;-0.50;100.00;97893.28;4090466;28;20096;-72
2022/01/08 03:25:06;;;;;;;;;;;;;;;-0.52;100.00;97892.00;4089864;28;20047;-72
2022/01/08 03:27:06;;;;;;;3.35;2.05;;;;;;;-0.57;100.00;97884.84;4088396;28;19918;-72
2022/01/08 03:29:08;;;;;;;3.03;2.42;;;;;;;-0.60;100.00;97885.47;4089770;28;20895;-72
2022/01/08 03:31:08;;;;;;;2.80;2.22;;;;;;;-0.60;100.00;97878.09;4090110;28;20151;-72
2022/01/08 03:33:08;;;;;;;3.58;2.38;;;;;;;-0.59;100.00;97887.06;4089549;28;20150;-72
2022/01/08 03:35:09;;;;;;;4.35;2.80;;;;;;;-0.61;100.00;97879.22;4091960;28;20038;-72
2022/01/08 03:37:10;;;;;;;2.85;2.22;;;;;;;-0.56;100.00;97875.56;4088992;28;20807;-72
2022/01/08 03:39:10;;;;;;;3.63;2.67;;;;;;;-0.57;100.00;97879.41;4088766;28;20491;-72
2022/01/08 03:41:11;;;;;;;3.13;2.50;;;;;;;-0.55;100.00;97877.16;4091860;28;20146;-72
2022/01/08 03:43:11;;;;;;;5.00;3.00;;;;;;;-0.55;100.00;97884.50;4088826;28;20138;-72
2022/01/08 03:45:12;;;;;;;3.45;2.53;;;;;;;-0.50;100.00;97878.91;4088945;28;20263;-72
2022/01/08 03:49:29;;;;;;;4.80;2.60;;;;;;;-0.50;100.00;97873.47;4090038;28;20498;-72
2022/01/08 03:51:31;;;;;;;3.72;2.60;;;;;;;-0.43;100.00;97884.66;4089630;28;20047;-72
2022/01/08 03:53:31;;;;;;;3.65;2.80;;;;;;;-0.42;100.00;97872.66;4089037;28;20858;-72
2022/01/08 03:55:32;;;;;;;3.88;2.42;;;;;;;-0.37;100.00;97875.22;4089065;28;20118;-72
2022/01/08 03:57:32;;;;;;;3.30;2.53;;;;;;;-0.36;100.00;97880.34;4087880;28;20051;-72
2022/01/08 03:59:33;;;;;;;4.22;2.72;;;;;;;-0.37;100.00;97883.38;4088857;28;20051;-72
2022/01/08 04:01:33;;;;;;;3.30;2.55;;;;;;;-0.40;100.00;97878.59;4088120;28;20047;-72
2022/01/08 04:03:34;;;;;;;4.97;2.95;;;;;;;-0.44;100.00;97885.78;4089641;28;20039;-72
2022/01/08 04:05:34;;;;;;;4.68;3.15;;;;;;;-0.47;100.00;97895.38;4089296;28;20085;-72
2022/01/08 04:07:35;;;;;;;3.72;3.00;;;;;;;-0.44;100.00;97885.78;4087389;28;20074;-72
2022/01/08 04:09:35;;;;;;;5.13;3.17;;;;;;;-0.48;100.00;97893.00;4095680;28;20484;-72
2022/01/08 04:11:35;;;;;;;5.43;3.63;;;;;;;-0.53;100.00;97883.06;4089122;28;20550;-72
2022/01/08 04:13:39;;;;;;;7.63;4.68;;;;;;;-0.55;100.00;97882.59;4088374;28;20047;-72
2022/01/08 04:15:43;;;;;;;6.85;4.60;;;;;;;-0.59;100.00;97890.56;4090591;28;20281;-72
2022/01/08 04:17:43;;;;;;;9.73;6.35;;;;;;;-0.58;100.00;97897.63;4089840;28;20942;-72
2022/01/08 04:19:44;;;;;;;9.65;5.45;;;;;;;-0.60;100.00;97888.97;4093540;28;20169;-72
2022/01/08 04:22:17;;;;;;;5.18;3.63;;;;;;;-0.58;100.00;97892.19;4088851;28;20043;-72
2022/01/08 04:24:11;;;;;;;5.10;3.22;;;;;;;-0.60;100.00;97894.41;4088910;28;20056;-72
2022/01/08 04:26:11;;;;;;;5.30;3.88;;;;;;;-0.58;100.00;97899.53;4090009;28;20091;-72
2022/01/08 04:28:11;;;;;;;4.28;3.20;;;;;;;-0.60;100.00;97897.13;4090956;28;20408;-72
2022/01/08 04:30:12;;;;;;;5.63;3.67;;;;;;;-0.54;100.00;97897.78;4089815;28;20529;-72
2022/01/08 04:32:12;;;;;;;4.35;3.30;;;;;;;-0.52;100.00;97897.44;4088886;28;20785;-72
2022/01/08 04:34:13;;;;;;;6.10;3.40;;;;;;;-0.54;100.00;97889.63;4088903;28;20035;-72
2022/01/08 04:36:13;;;;;;;4.68;3.20;;;;;;;-0.51;100.00;97885.47;4087857;28;20040;-72
2022/01/08 04:38:14;;;;;;;3.80;3.20;;;;;;;-0.45;100.00;97897.78;4088886;28;20093;-72
2022/01/08 04:40:14;;;;;;;5.90;3.25;;;;;;;-0.46;100.00;97898.91;4089341;28;20966;-72
2022/01/08 04:42:14;;;;;;;3.45;2.95;;;;;;;-0.45;100.00;97893.13;4087105;28;20035;-72
2022/01/08 04:44:15;;;;;;;3.75;2.72;;;;;;;-0.48;100.00;97890.28;4089083;28;20035;-72
2022/01/08 04:46:15;;;;;;;3.88;2.72;;;;;;;-0.43;100.00;97900.97;4090372;28;20039;-72
2022/01/08 04:48:16;;;;;;;3.38;2.83;;;;;;;-0.40;100.00;97903.06;4089890;28;20039;-72
2022/01/08 04:50:16;;;;;;;4.32;3.03;;;;;;;-0.39;100.00;97902.75;4087901;28;20879;-72
2022/01/08 04:52:17;;;;;;;4.75;2.97;;;;;;;-0.38;100.00;97901.63;4089057;28;20038;-72
2022/01/08 04:54:19;;;;;;;3.63;2.88;;;;;;;-0.34;100.00;97902.56;4088729;28;20096;-72
2022/01/08 04:56:19;;;;;;;3.47;2.80;;;;;;;-0.35;100.00;97911.03;4087230;28;20038;-72
2022/01/08 04:58:20;;;;;;;3.10;2.67;;;;;;;-0.37;100.00;97899.69;4088046;28;20041;-72
2022/01/08 05:00:21;;;;;;;3.80;2.75;;;;;;;-0.35;100.00;97900.16;4088512;28;20074;-72
2022/01/08 05:02:22;;;;;;;4.53;2.72;;;;;;;-0.35;100.00;97889.28;4096016;28;20451;-72
2022/01/08 05:04:22;;;;;;;4.22;2.42;;;;;;;-0.36;100.00;97888.50;4088723;28;20060;-72
2022/01/08 05:06:22;;;;;;;3.33;2.35;;;;;;;-0.33;100.00;97892.50;4088810;28;20133;-72
2022/01/08 05:08:23;;;;;;;2.72;2.10;;;;;;;-0.35;100.00;97898.25;4088209;28;20043;-72
2022/01/08 05:10:23;;;;;;;3.13;2.30;;;;;;;-0.37;100.00;97899.69;4090369;28;20051;-72
2022/01/08 05:12:23;;;;;;;2.80;2.20;;;;;;;-0.36;100.00;97899.38;4088053;28;20043;-72
2022/01/08 05:14:25;;;;;;;3.08;2.35;;;;;;;-0.36;100.00;97896.66;4089569;28;20043;-72
2022/01/08 05:16:28;;;;;;;2.30;2.10;;;;;;;-0.38;100.00;97892.66;4090593;28;20110;-72
2022/01/08 05:18:30;;;;;;;;;;;;;;;-0.35;100.00;97906.41;4089388;28;20305;-72
2022/01/08 05:20:35;;;;;;;2.70;2.03;;;;;;;-0.38;100.00;97892.66;4090463;28;19922;-72
2022/01/08 05:24:48;;;;;;;2.50;1.80;;;;;;;-0.40;100.00;97890.28;4090367;28;20047;-72
2022/01/08 05:26:48;;;;;;;3.30;1.85;;;;;;;-0.37;100.00;97896.97;4087781;28;20047;-72
2022/01/08 05:28:49;;;;;;;3.35;2.20;;;;;;;-0.37;100.00;97886.91;4087549;28;20112;-72
2022/01/08 05:30:49;;;;;;;2.35;1.88;;;;;;;-0.38;100.00;97904.34;4092046;28;20058;-72
2022/01/08 05:32:50;;;;;;;2.53;1.98;;;;;;;-0.38;100.00;97893.47;4098013;28;20561;-71
2022/01/08 05:34:51;;;;;;;2.50;1.95;;;;;;;-0.35;100.00;97897.44;4088929;28;20047;-72
2022/01/08 05:36:52;;;;;;;3.15;1.98;;;;;;;-0.35;100.00;97892.81;4086294;28;20165;-72
2022/01/08 05:38:52;;;;;;;2.88;1.80;;;;;;;-0.34;100.00;97893.59;4088323;28;20050;-72
2022/01/08 05:40:52;;;;;;;3.45;1.95;;;;;;;-0.30;100.00;97898.09;4089528;28;20944;-72
2022/01/08 05:42:53;;;;;;;2.58;1.70;;;;;;;-0.33;100.00;97904.19;4091205;28;20039;-72
2022/01/08 05:44:53;;;;;;;2.00;1.60;;;;;;;-0.36;100.00;97899.38;4089775;28;20386;-72
2022/01/08 05:46:54;;;;;;;2.38;1.70;;;;;;;-0.35;100.00;97900.16;4087068;28;20392;-72
2022/01/08 05:49:00;;;;;;;2.45;1.90;;;;;;;-0.36;100.00;97910.25;4087679;28;20079;-72
2022/01/08 05:51:00;;;;;;;2.22;1.63;;;;;;;-0.36;100.00;97904.00;4087572;28;20495;-72
2022/01/08 05:53:00;;;;;;;2.63;1.70;;;;;;;-0.37;100.00;97908.66;4090903;28;20262;-72
2022/01/08 05:55:01;;;;;;;3.25;1.73;;;;;;;-0.36;100.00;97910.25;4087318;28;20051;-72
2022/01/08 05:57:01;;;;;;;2.92;1.90;;;;;;;-0.37;100.00;97908.66;4092386;28;20061;-72
2022/01/08 05:59:02;;;;;;;2.40;1.60;;;;;;;-0.38;100.00;97904.34;4087857;28;20208;-72
2022/01/08 06:01:02;;;;;;;2.80;1.80;;;;;;;-0.37;100.00;97905.94;4090772;28;20051;-72
2022/01/08 06:03:03;;;;;;;2.65;1.70;;;;;;;-0.34;100.00;97907.19;4087632;28;20762;-72
2022/01/08 06:05:08;;;;;;;2.28;1.70;;;;;;;-0.34;100.00;97907.19;4089589;28;20035;-72
2022/01/08 06:07:08;;;;;;;2.20;1.63;;;;;;;-0.34;100.00;97913.44;4088976;28;20032;-72
2022/01/08 06:09:08;;;;;;;1.52;1.42;;;;;;;-0.30;100.00;97910.88;4087076;28;20112;-72
2022/01/08 06:11:09;;;;;;;3.53;1.90;;;;;;;-0.29;100.00;97910.56;4093158;28;20133;-72
2022/01/08 06:13:09;;;;;;;3.15;2.10;;;;;;;-0.30;100.00;97919.03;4087596;28;20043;-72
2022/01/08 06:15:09;;;;;;;4.35;2.25;;;;;;;-0.36;100.00;97910.25;4088516;28;20455;-72
2022/01/08 06:17:11;;;;;;;3.85;1.92;;;;;;;-0.34;100.00;97926.22;4103103;28;20078;-72
2022/01/08 06:19:13;;;;;;;3.10;2.13;;;;;;;-0.38;100.00;97923.34;4096754;28;20051;-71
2022/01/08 06:21:13;;;;;;;3.55;2.10;;;;;;;-0.37;100.00;97930.38;4088523;28;20061;-72
2022/01/08 06:23:14;;;;;;;2.13;1.45;;;;;;;-0.39;100.00;97937.28;4090506;28;20042;-72
2022/01/08 06:25:14;;;;;;;2.25;1.60;;;;;;;-0.40;100.00;97936.47;4090239;28;20051;-72
2022/01/08 06:27:15;;;;;;;2.80;1.73;;;;;;;-0.38;100.00;97936.16;4091388;28;20494;-72
2022/01/08 06:29:15;;;;;;;2.50;1.63;;;;;;;-0.39;100.00;97937.28;4089627;28;20105;-72
2022/01/08 06:31:15;;;;;;;1.98;1.40;;;;;;;-0.43;100.00;97936.31;4090677;28;20043;-72
2022/01/08 06:33:17;;;;;;;3.22;1.33;;;;;;;-0.41;100.00;97939.53;4095481;28;20050;-72
2022/01/08 06:35:18;;;;;;;3.03;1.50;;;;;;;-0.41;100.00;97950.41;4095860;28;20243;-72
2022/01/08 06:37:18;;;;;;;3.78;2.33;;;;;;;-0.43;100.00;97942.53;4093421;28;20593;-72
2022/01/08 06:39:19;;;;;;;4.07;2.53;;;;;;;-0.43;100.00;97947.97;4090557;28;20093;-72
2022/01/08 06:41:20;;;;;;;5.20;2.92;;;;;;;-0.43;100.00;97950.69;4093939;28;20051;-72
2022/01/08 06:43:20;;;;;;;3.30;2.22;;;;;;;-0.43;100.00;97947.16;4089199;28;20476;-72
2022/01/08 06:45:21;;;;;;;1.50;1.17;;;;;;;-0.46;100.00;97943.19;4092727;28;20074;-72
2022/01/08 06:47:22;;;;;;;1.48;1.10;;;;;;;-0.45;100.00;97950.22;4094038;28;20057;-72
2022/01/08 06:49:22;;;;;;;1.98;0.95;;;;;;;-0.47;100.00;97947.03;4089049;28;20138;-72
2022/01/08 06:51:24;;;;;;;0.93;0.82;;;;;;;-0.46;100.00;97955.97;4064874;28;20051;-72
2022/01/08 06:53:24;;;;;;;3.30;1.20;;;;;;;-0.45;100.00;97969.25;4090389;28;20051;-72
2022/01/08 06:55:26;;;;;;;1.65;1.10;;;;;;;-0.45;100.00;97974.66;4092088;28;20059;-72
2022/01/08 06:57:26;;;;;;;5.57;3.63;;;;;;;-0.50;100.00;97969.38;4088185;28;20414;-72
2022/01/08 06:59:27;;;;;;;7.55;3.55;;;;;;;-0.48;100.00;97978.03;4090632;28;20047;-72
2022/01/08 07:01:27;;;;;;;5.55;3.17;;;;;;;-0.48;100.00;97983.47;4095247;28;20051;-72
2022/01/08 07:03:28;;;;;;;7.80;4.65;;;;;;;-0.44;100.00;97984.41;4088776;28;20089;-72
2022/01/08 07:05:28;;;;;;;9.48;4.95;;;;;;;-0.47;100.00;97987.78;4090225;28;20056;-72
2022/01/08 07:07:29;;;;;;;12.27;5.15;;;;;;;-0.47;100.00;97990.50;4089002;28;20635;-72
2022/01/08 07:09:29;;;;;;;12.27;5.47;;;;;;;-0.50;100.00;97982.97;4090083;28;20039;-72
2022/01/08 07:11:29;;;;;;;23.02;8.52;;;;;;;-0.52;100.00;97984.41;4089316;28;20372;-72
2022/01/08 07:13:30;;;;;;;21.98;9.57;;;;;;;-0.54;100.00;98006.47;4090193;28;20073;-72
2022/01/08 07:15:30;;;;;;;12.70;5.43;;;;;;;-0.55;100.00;97999.44;4089493;28;20169;-72
2022/01/08 07:17:31;;;;;;;17.45;7.05;;;;;;;-0.58;100.00;97997.34;4088798;28;20054;-72
2022/01/08 07:19:31;;;;;;;12.63;5.75;;;;;;;-0.61;100.00;98008.84;4089843;28;20757;-72
2022/01/08 07:21:31;;;;;;;16.17;6.63;;;;;;;-0.63;100.00;98006.47;4089606;28;20051;-72
2022/01/08 07:23:32;;;;;;;11.82;5.22;;;;;;;-0.67;100.00;98000.03;4089176;28;20368;-72
2022/01/08 07:25:32;;;;;;;10.73;4.68;;;;;;;-0.68;100.00;98008.50;4089505;28;20212;-72
2022/01/08 07:27:34;;;;;;;16.70;5.97;;;;;;;-0.68;100.00;98009.31;4093554;28;20106;-72
2022/01/08 07:29:34;;;;;;;14.40;6.47;;;;;;;-0.69;100.00;98004.19;4096689;28;20070;-72
2022/01/08 07:31:34;;;;;;;20.98;7.68;;;;;;;-0.70;100.00;98003.41;4091274;28;20491;-72
2022/01/08 07:33:35;;;;;;;11.73;5.22;;;;;;;-0.65;100.00;98011.41;4090424;28;20126;-72
2022/01/08 07:35:35;;;;;;;9.23;4.07;;;;;;;-0.63;100.00;98019.25;4089501;28;20158;-72
2022/01/08 07:37:36;;;;;;;9.15;4.50;;;;;;;-0.64;100.00;98013.00;4098624;28;20042;-72
2022/01/08 07:39:36;;;;;;;7.10;4.43;;;;;;;-0.62;100.00;98009.97;4090693;28;20420;-72
2022/01/08 07:41:38;;;;;;;5.63;3.47;;;;;;;-0.59;100.00;98012.03;4091512;28;20087;-72
2022/01/08 07:43:39;;;;;;;5.85;3.65;;;;;;;-0.57;100.00;98013.34;4090179;28;20075;-72
2022/01/08 07:45:39;;;;;;;6.28;3.15;;;;;;;-0.59;100.00;98012.03;4095092;28;20332;-72
2022/01/08 07:47:39;;;;;;;5.65;2.97;;;;;;;-0.59;100.00;98014.75;4101763;28;20423;-72
2022/01/08 07:49:40;;;;;;;7.75;3.70;;;;;;;-0.63;100.00;98014.59;4092859;28;20071;-72
2022/01/08 07:51:40;;;;;;;10.75;5.95;;;;;;;-0.65;100.00;98019.56;4088995;28;20047;-72
2022/01/08 07:53:41;;;;;;;9.88;5.35;;;;;;;-0.68;100.00;98014.75;4161851;28;20045;-72
2022/01/08 07:55:41;;;;;;;10.05;6.22;;;;;;;-0.69;100.00;98032.16;4089405;28;20104;-72
2022/01/08 07:57:42;;;;;;;9.13;4.70;;;;;;;-0.70;100.00;98032.47;4089080;28;20059;-72
2022/01/08 07:59:42;;;;;;;8.95;4.38;;;;;;;-0.72;100.00;98027.38;4089939;28;20043;-72
2022/01/08 08:01:42;;;;;;;10.20;4.50;;;;;;;-0.71;100.00;98034.41;4089436;28;20091;-72
2022/01/08 08:03:43;;;;;;;7.10;3.50;;;;;;;-0.69;100.00;98023.22;4089123;28;20750;-72
2022/01/08 08:05:45;;;;;;;5.65;3.60;;;;;;;-0.64;100.00;98031.22;4093468;28;20047;-72
2022/01/08 08:07:45;;;;;;;7.20;3.72;;;;;;;-0.63;100.00;98033.63;4089716;28;20852;-72
2022/01/08 08:09:45;;;;;;;7.18;3.95;;;;;;;-0.62;100.00;98031.72;4096715;28;20195;-72
2022/01/08 08:11:46;;;;;;;7.28;3.85;;;;;;;-0.59;100.00;98026.44;4090159;28;20074;-72
2022/01/08 08:13:46;;;;;;;5.45;3.42;;;;;;;-0.55;100.00;98034.75;4089891;28;20764;-72
2022/01/08 08:15:48;;;;;;;4.88;3.53;;;;;;;-0.50;100.00;98044.66;4088604;28;20154;-72
2022/01/08 08:17:48;;;;;;;6.85;4.05;;;;;;;-0.48;100.00;98040.53;4089427;28;20539;-72
2022/01/08 08:19:49;;;;;;;8.43;4.05;;;;;;;-0.46;100.00;98040.22;4095985;28;20101;-72
2022/01/08 08:21:49;;;;;;;15.32;10.68;;;;;;;-0.45;100.00;98037.19;4095422;28;20078;-72
2022/01/08 08:23:49;;;;;;;13.63;8.70;;;;;;;-0.42;100.00;98033.03;4089193;28;20407;-72
2022/01/08 08:25:50;;;;;;;12.43;8.50;;;;;;;-0.44;100.00;98033.34;4089918;28;20044;-72
2022/01/08 08:27:50;;;;;;;11.27;8.32;;;;;;;-0.44;100.00;98038.78;4088551;28;20043;-72
2022/01/08 08:29:51;;;;;;;9.68;6.10;;;;;;;-0.48;100.00;98031.59;4089444;28;20570;-72
2022/01/08 08:31:51;;;;;;;4.68;3.60;;;;;;;-0.49;100.00;98030.78;4089529;28;20039;-72
2022/01/08 08:33:51;;;;;;;6.28;4.45;;;;;;;-0.50;100.00;98036.53;4089316;28;20350;-72
2022/01/08 08:35:52;;;;;;;4.15;3.50;;;;;;;-0.51;100.00;98029.50;4089664;28;20522;-72
2022/01/08 08:37:53;;;;;;;7.22;4.20;;;;;;;-0.50;100.00;98022.94;4090538;28;20691;-72
2022/01/08 08:39:53;;;;;;;13.52;7.60;;;;;;;-0.49;100.00;98030.00;4091790;28;20093;-72
2022/01/08 08:41:54;;;;;;;10.48;5.30;;;;;;;-0.57;100.00;98031.56;4093022;28;20402;-72
2022/01/08 08:43:54;;;;;;;7.47;4.00;;;;;;;-0.55;100.00;98023.91;4105981;28;20125;-72
2022/01/08 08:45:55;;;;;;;10.05;8.13;;;;;;;-0.59;100.00;98029.16;4094462;28;20065;-72
2022/01/08 08:47:56;;;;;;;13.10;9.13;;;;;;;-0.55;100.00;98028.53;4099191;28;20047;-72
2022/01/08 08:49:56;;;;;;;8.23;5.22;;;;;;;-0.58;100.00;98036.22;4093916;28;20039;-72
2022/01/08 08:51:57;;;;;;;8.23;6.05;;;;;;;-0.58;100.00;98028.06;4140306;28;20045;-72
2022/01/08 08:53:57;;;;;;;15.55;8.50;;;;;;;-0.58;100.00;98044.38;4089178;28;20464;-72
2022/01/08 08:55:57;;;;;;;7.97;6.00;;;;;;;-0.58;100.00;98044.38;4088711;28;20450;-72
2022/01/08 08:57:59;;;;;;;8.70;5.78;;;;;;;-0.63;100.00;98041.78;4087831;28;20039;-72
2022/01/08 08:59:59;;;;;;;57.85;27.95;;;;;;;-0.59;100.00;98050.09;4089838;28;20785;-72
2022/01/08 09:02:00;;;;;;;18.52;10.88;;;;;;;-0.58;100.00;98055.22;4088372;28;20299;-72
2022/01/08 09:04:00;;;;;;;11.10;7.15;;;;;;;-0.59;100.00;98050.09;4088144;28;20078;-72
2022/01/08 09:06:02;;;;;;;7.75;6.28;;;;;;;-0.62;100.00;98056.97;4094267;28;20046;-72
2022/01/08 09:08:04;;;;;;;9.43;4.47;;;;;;;-0.62;100.00;98064.31;4107469;28;20509;-72
2022/01/08 09:10:06;;;;;;;7.47;4.10;;;;;;;-0.63;100.00;98065.44;4108094;28;20030;-72
2022/01/08 09:12:07;;;;;;;6.57;3.58;;;;;;;-0.63;100.00;98068.16;4089542;28;20102;-72
2022/01/08 09:14:08;;;;;;;7.63;4.28;;;;;;;-0.60;100.00;98073.75;4090627;28;20096;-72
2022/01/08 09:16:09;;;;;;;7.60;4.55;;;;;;;-0.59;100.00;98067.19;4090508;28;20027;-72
2022/01/08 09:18:10;;;;;;;12.32;6.72;;;;;;;-0.53;100.00;98078.72;4091485;28;20035;-72
2022/01/08 09:20:11;;;;;;;6.18;4.45;;;;;;;-0.53;100.00;98076.00;4089421;28;20262;-72
2022/01/08 09:22:12;;;;;;;6.85;4.47;;;;;;;-0.54;100.00;98084.47;4087709;28;20477;-72
2022/01/08 09:24:12;;;;;;;8.23;4.53;;;;;;;-0.54;100.00;98073.63;4088822;28;20050;-72
2022/01/08 09:26:13;;;;;;;8.00;4.70;;;;;;;-0.53;100.00;98076.00;4092033;28;20051;-72
2022/01/08 09:28:13;;;;;;;7.25;4.15;;;;;;;-0.52;100.00;98069.47;4087827;28;20035;-72
2022/01/08 09:30:14;;;;;;;8.45;4.43;;;;;;;-0.48;100.00;98075.88;4087653;28;20159;-72
2022/01/08 09:32:14;;;;;;;8.48;4.68;;;;;;;-0.51;100.00;98068.34;4089333;28;20031;-72
2022/01/08 09:34:15;;;;;;;9.57;5.28;;;;;;;-0.53;100.00;98067.06;4087951;28;20516;-72
2022/01/08 09:36:15;;;;;;;8.80;4.97;;;;;;;-0.54;100.00;98063.53;4088040;28;20032;-72
2022/01/08 09:38:16;;;;;;;9.52;4.90;;;;;;;-0.53;100.00;98067.06;4088795;28;20395;-72
2022/01/08 09:40:17;;;;;;;11.32;7.03;;;;;;;-0.55;100.00;98064.66;4093518;28;20041;-72
2022/01/08 09:42:19;;;;;;;22.87;12.20;;;;;;;-0.44;100.00;98071.41;4089221;28;20526;-72
2022/01/08 09:44:19;;;;;;;28.98;15.95;;;;;;;-0.43;100.00;98066.75;4088459;28;20789;-72
2022/01/08 09:46:21;;;;;;;13.65;8.07;;;;;;;-0.47;100.00;98071.25;4088816;28;20041;-72
2022/01/08 09:48:21;;;;;;;10.18;6.50;;;;;;;-0.52;100.00;98064.03;4093688;28;20439;-72